createdAt,value
2023-03-31T00:01:01.006Z,99193.03
2023-03-31T00:03:29.546Z,99194.69
2023-03-31T00:05:59.000Z,99206.22
2023-03-31T00:08:30.850Z,99204.41
2023-03-31T00:11:01.515Z,99202.72
2023-03-31T00:13:30.398Z,99200.03
2023-03-31T00:16:02.495Z,99006.19
2023-03-31T00:18:31.163Z,99199.06
2023-03-31T00:21:08.842Z,99199.06
2023-03-31T00:23:37.198Z,99192.00
2023-03-31T00:26:06.479Z,99194.69
2023-03-31T00:28:34.754Z,99098.41
2023-03-31T00:31:04.986Z,99194.69
2023-03-31T00:33:33.318Z,99197.34
2023-03-31T00:36:02.478Z,99200.03
2023-03-31T00:38:31.224Z,99188.53
2023-03-31T00:40:59.697Z,99053.34
2023-03-31T00:43:33.212Z,99190.34
2023-03-31T00:46:18.137Z,99187.66
2023-03-31T00:48:51.012Z,99106.09
2023-03-31T00:51:21.735Z,99187.66
2023-03-31T00:53:57.579Z,99187.66
2023-03-31T00:56:26.652Z,99180.66
2023-03-31T00:58:58.094Z,99178.97
2023-03-31T01:01:27.980Z,99173.94
2023-03-31T01:03:57.562Z,99173.63
2023-03-31T01:06:26.433Z,99180.66
2023-03-31T01:08:54.704Z,99172.81
2023-03-31T01:11:27.545Z,99178.97
2023-03-31T01:13:58.132Z,99070.88
2023-03-31T01:16:27.780Z,99168.78
2023-03-31T01:18:57.681Z,99178.97
2023-03-31T01:22:11.372Z,99175.31
2023-03-31T01:25:17.538Z,99168.28
2023-03-31T01:27:59.523Z,99125.84
2023-03-31T01:30:48.605Z,99166.59
2023-03-31T01:33:51.740Z,99163.94
2023-03-31T01:37:11.684Z,99163.94
2023-03-31T01:40:10.870Z,99155.06
2023-03-31T01:42:44.273Z,98969.50
2023-03-31T01:45:21.544Z,99047.66
2023-03-31T01:47:54.716Z,99163.25
2023-03-31T01:50:27.785Z,99157.91
2023-03-31T01:53:04.932Z,99161.59
2023-03-31T01:55:38.239Z,99066.00
2023-03-31T01:58:12.519Z,98981.00
2023-03-31T02:00:46.884Z,99159.59
2023-03-31T02:03:19.452Z,99155.41
2023-03-31T02:05:53.004Z,99155.91
2023-03-31T02:08:26.256Z,99088.72
2023-03-31T02:10:57.848Z,99150.56
2023-03-31T02:13:29.681Z,99154.25
2023-03-31T02:16:02.599Z,99156.75
2023-03-31T02:18:38.455Z,99122.13
2023-03-31T02:21:08.071Z,99161.25
2023-03-31T02:23:39.091Z,99069.34
2023-03-31T02:26:11.515Z,99155.91
2023-03-31T02:28:40.237Z,99154.25
2023-03-31T02:31:22.464Z,99152.56
2023-03-31T02:33:51.164Z,99112.81
2023-03-31T02:36:21.602Z,99150.56
2023-03-31T02:38:55.486Z,99142.53
2023-03-31T02:41:25.386Z,99142.53
2023-03-31T02:43:53.714Z,99142.53
2023-03-31T02:46:22.811Z,99145.22
2023-03-31T02:48:54.282Z,99146.88
2023-03-31T02:52:13.094Z,99131.16
2023-03-31T02:55:07.620Z,99133.66
2023-03-31T02:58:06.794Z,99132.84
2023-03-31T03:00:51.079Z,99084.72
2023-03-31T03:03:33.956Z,99131.16
2023-03-31T03:06:13.816Z,99131.16
2023-03-31T03:09:03.660Z,99132.84
2023-03-31T03:11:41.331Z,99056.34
2023-03-31T03:14:21.174Z,99127.50
2023-03-31T03:16:54.872Z,98999.59
2023-03-31T03:19:24.316Z,99125.81
2023-03-31T03:21:52.402Z,99116.81
2023-03-31T03:24:22.968Z,99116.81
2023-03-31T03:26:52.072Z,99123.81
2023-03-31T03:29:21.732Z,99115.28
2023-03-31T03:31:49.842Z,99026.59
2023-03-31T03:34:18.898Z,98982.88
2023-03-31T03:36:47.656Z,99116.81
2023-03-31T03:39:16.064Z,99116.81
2023-03-31T03:41:44.172Z,99113.44
2023-03-31T03:44:12.295Z,99123.81
2023-03-31T03:46:41.757Z,99112.09
2023-03-31T03:49:10.237Z,99113.44
2023-03-31T03:51:38.286Z,99119.31
2023-03-31T03:54:06.622Z,99119.31
2023-03-31T03:56:34.705Z,99127.34
2023-03-31T03:59:02.744Z,99115.13
2023-03-31T04:01:30.999Z,99131.84
2023-03-31T04:04:00.583Z,99132.84
2023-03-31T04:06:28.724Z,99126.66
2023-03-31T04:08:56.857Z,99032.78
2023-03-31T04:11:25.022Z,99129.16
2023-03-31T04:13:53.484Z,98953.47
2023-03-31T04:16:23.198Z,99117.44
2023-03-31T04:18:52.975Z,99111.13
2023-03-31T04:21:23.975Z,99108.63
2023-03-31T04:23:59.077Z,99127.16
2023-03-31T04:26:39.144Z,99021.09
2023-03-31T04:29:07.808Z,99015.91
2023-03-31T04:31:38.913Z,99112.09
2023-03-31T04:34:13.285Z,99106.09
2023-03-31T04:36:47.760Z,99102.41
2023-03-31T04:39:18.350Z,99023.75
2023-03-31T04:41:46.595Z,99107.75
2023-03-31T04:44:14.713Z,99104.41
2023-03-31T04:46:42.740Z,99103.44
2023-03-31T04:49:10.823Z,99104.41
2023-03-31T04:51:39.045Z,99106.09
2023-03-31T04:54:08.759Z,98984.22
2023-03-31T04:56:36.896Z,99106.09
2023-03-31T04:59:05.264Z,99102.41
2023-03-31T05:01:36.645Z,99023.59
2023-03-31T05:04:04.928Z,99109.41
2023-03-31T05:06:33.005Z,99101.41
2023-03-31T05:09:01.261Z,99105.09
2023-03-31T05:11:31.044Z,99015.91
2023-03-31T05:13:59.145Z,99107.75
2023-03-31T05:16:27.253Z,99105.09
2023-03-31T05:18:55.737Z,98919.09
2023-03-31T05:21:24.385Z,99091.38
2023-03-31T05:23:52.525Z,99098.72
2023-03-31T05:26:22.449Z,99115.78
2023-03-31T05:28:51.993Z,99107.75
2023-03-31T05:31:20.423Z,99065.19
2023-03-31T05:33:48.516Z,99017.56
2023-03-31T05:36:18.631Z,99118.47
2023-03-31T05:38:47.819Z,99125.47
2023-03-31T05:41:17.072Z,99114.78
2023-03-31T05:43:45.358Z,99115.78
2023-03-31T05:46:14.893Z,99107.75
2023-03-31T05:48:43.178Z,99125.81
2023-03-31T05:51:11.337Z,99110.41
2023-03-31T05:53:39.413Z,99125.47
2023-03-31T05:56:08.572Z,99128.16
2023-03-31T05:58:37.628Z,99134.50
2023-03-31T06:01:08.153Z,99126.50
2023-03-31T06:03:41.384Z,99129.16
2023-03-31T06:06:10.477Z,99125.81
2023-03-31T06:08:39.040Z,99131.84
2023-03-31T06:11:08.287Z,99134.50
2023-03-31T06:13:36.818Z,99153.41
2023-03-31T06:16:05.947Z,98945.47
2023-03-31T06:18:36.319Z,99148.72
2023-03-31T06:21:07.051Z,99148.91
2023-03-31T06:23:35.839Z,99052.34
2023-03-31T06:26:07.204Z,98970.31
2023-03-31T06:28:35.464Z,99148.22
2023-03-31T06:31:05.218Z,99151.25
2023-03-31T06:33:34.227Z,98980.19
2023-03-31T06:36:04.411Z,99153.56
2023-03-31T06:38:34.080Z,99166.94
2023-03-31T06:41:02.306Z,98973.16
2023-03-31T06:43:31.098Z,99157.91
2023-03-31T06:45:59.414Z,99158.75
2023-03-31T06:48:28.916Z,99156.94
2023-03-31T06:51:00.618Z,99164.94
2023-03-31T06:53:29.188Z,99166.94
2023-03-31T06:55:59.107Z,99164.94
2023-03-31T06:58:29.730Z,99175.66
2023-03-31T07:00:59.883Z,99175.66
2023-03-31T07:03:30.373Z,99164.94
2023-03-31T07:05:58.970Z,99181.00
2023-03-31T07:08:27.283Z,99177.31
2023-03-31T07:10:57.961Z,98985.53
2023-03-31T07:13:29.473Z,99177.31
2023-03-31T07:15:57.813Z,99181.00
2023-03-31T07:18:35.132Z,99186.34
2023-03-31T07:21:05.823Z,99080.38
2023-03-31T07:23:36.377Z,99193.69
2023-03-31T07:26:04.574Z,99191.69
2023-03-31T07:28:34.584Z,99194.38
2023-03-31T07:31:02.774Z,99166.94
2023-03-31T07:33:31.092Z,99197.03
2023-03-31T07:36:10.747Z,99192.03
2023-03-31T07:38:40.799Z,99196.19
2023-03-31T07:41:13.095Z,99202.41
2023-03-31T07:43:42.744Z,99194.53
2023-03-31T07:46:16.663Z,99012.22
2023-03-31T07:48:46.678Z,99207.75
2023-03-31T07:51:15.411Z,99110.47
2023-03-31T07:53:43.982Z,99190.63
2023-03-31T07:56:12.337Z,99112.44
2023-03-31T07:58:40.608Z,99196.19
2023-03-31T08:01:10.173Z,99213.09
2023-03-31T08:03:38.288Z,99208.72
2023-03-31T08:06:06.787Z,99204.06
2023-03-31T08:08:35.069Z,99209.41
2023-03-31T08:11:03.684Z,99205.88
2023-03-31T08:13:31.897Z,99206.06
2023-03-31T08:16:00.036Z,99204.38
2023-03-31T08:18:29.724Z,99197.38
2023-03-31T08:20:57.952Z,99198.38
2023-03-31T08:23:27.907Z,99114.97
2023-03-31T08:25:56.026Z,99199.03
2023-03-31T08:28:24.079Z,99207.75
2023-03-31T08:30:52.701Z,99204.06
2023-03-31T08:33:20.836Z,99208.56
2023-03-31T08:35:50.459Z,99202.41
2023-03-31T08:38:18.687Z,99207.75
2023-03-31T08:40:46.795Z,99208.56
2023-03-31T08:43:24.377Z,99121.63
2023-03-31T08:48:26.095Z,99206.06
2023-03-31T08:51:01.310Z,99200.69
2023-03-31T08:53:32.580Z,99028.25
2023-03-31T08:56:02.202Z,99110.78
2023-03-31T08:58:39.542Z,99216.75
2023-03-31T09:01:17.071Z,99209.75
2023-03-31T09:03:58.386Z,99031.56
2023-03-31T09:06:38.256Z,99215.78
2023-03-31T09:09:12.798Z,99220.44
2023-03-31T09:11:48.690Z,99227.44
2023-03-31T09:14:28.171Z,99226.81
2023-03-31T09:17:14.172Z,99114.09
2023-03-31T09:19:46.875Z,99225.41
2023-03-31T09:22:21.270Z,99229.47
2023-03-31T09:24:57.286Z,99229.78
2023-03-31T09:27:31.440Z,99232.09
2023-03-31T09:30:05.787Z,99095.22
2023-03-31T09:32:34.398Z,99236.81
2023-03-31T09:35:14.163Z,99243.66
2023-03-31T09:37:43.776Z,99240.19
2023-03-31T09:40:18.190Z,99241.84
2023-03-31T09:42:47.678Z,99235.63
2023-03-31T09:45:18.222Z,99046.25
2023-03-31T09:47:48.840Z,99245.53
2023-03-31T09:50:17.571Z,99242.84
2023-03-31T09:52:53.330Z,99247.19
2023-03-31T09:55:38.250Z,99256.88
2023-03-31T09:58:09.724Z,99142.84
2023-03-31T10:00:37.989Z,99248.19
2023-03-31T10:03:08.530Z,99258.22
2023-03-31T10:05:40.148Z,99256.22
2023-03-31T10:08:32.116Z,99264.91
2023-03-31T10:11:11.442Z,99266.94
2023-03-31T10:13:47.649Z,99270.41
2023-03-31T10:16:26.188Z,99275.25
2023-03-31T10:19:14.303Z,99261.88
2023-03-31T10:21:48.997Z,99265.59
2023-03-31T10:24:21.450Z,99266.75
2023-03-31T10:26:52.129Z,99281.31
2023-03-31T10:29:25.795Z,99277.63
2023-03-31T10:31:57.601Z,99192.81
2023-03-31T10:34:27.281Z,99288.16
2023-03-31T10:36:56.555Z,99197.66
2023-03-31T10:39:33.461Z,99134.66
2023-03-31T10:42:02.772Z,99277.97
2023-03-31T10:44:37.198Z,99104.22
2023-03-31T10:47:11.478Z,99287.16
2023-03-31T10:49:41.314Z,99195.81
2023-03-31T10:52:19.529Z,99298.69
2023-03-31T10:54:56.589Z,99300.34
2023-03-31T10:57:35.943Z,99299.03
2023-03-31T11:00:17.278Z,99219.72
2023-03-31T11:03:19.108Z,99314.75
2023-03-31T11:05:52.035Z,99304.03
2023-03-31T11:08:38.684Z,99219.38
2023-03-31T11:11:24.096Z,99312.91
2023-03-31T11:14:01.737Z,99231.75
2023-03-31T11:16:41.518Z,99313.09
2023-03-31T11:19:21.809Z,99329.13
2023-03-31T11:22:01.006Z,99317.44
2023-03-31T11:24:55.034Z,99330.81
2023-03-31T11:27:37.124Z,99334.50
2023-03-31T11:30:12.520Z,99249.13
2023-03-31T11:32:57.589Z,99339.84
2023-03-31T11:35:45.518Z,99341.50
2023-03-31T11:38:38.328Z,99352.22
2023-03-31T11:41:09.912Z,99353.22
2023-03-31T11:43:44.632Z,99349.19
2023-03-31T11:46:17.089Z,99351.34
2023-03-31T11:48:49.862Z,99366.94
2023-03-31T11:51:22.606Z,99350.88
2023-03-31T11:53:54.358Z,99357.56
2023-03-31T11:56:24.292Z,99348.84
2023-03-31T11:59:00.581Z,99286.22
2023-03-31T12:01:43.775Z,99360.91
2023-03-31T12:04:23.903Z,99290.59
2023-03-31T12:06:57.761Z,99362.56
2023-03-31T12:09:31.541Z,99210.78
2023-03-31T12:12:06.485Z,99361.91
2023-03-31T12:14:40.776Z,99361.91
2023-03-31T12:17:13.182Z,99352.53
2023-03-31T12:19:48.718Z,99365.59
2023-03-31T12:22:21.571Z,99362.91
2023-03-31T12:24:50.527Z,99366.59
2023-03-31T12:27:23.219Z,99294.28
2023-03-31T12:29:59.383Z,99370.94
2023-03-31T12:32:32.216Z,99367.25
2023-03-31T12:35:06.263Z,99362.91
2023-03-31T12:37:53.584Z,99359.22
2023-03-31T12:40:37.006Z,99365.59
2023-03-31T12:43:25.845Z,99361.25
2023-03-31T12:46:05.593Z,99334.25
2023-03-31T12:48:51.423Z,99367.09
2023-03-31T12:51:40.796Z,99366.28
2023-03-31T12:54:24.087Z,99361.91
2023-03-31T12:57:20.655Z,99349.38
2023-03-31T13:00:19.061Z,99352.88
2023-03-31T13:02:49.927Z,99258.84
2023-03-31T13:05:48.364Z,99360.06
2023-03-31T13:08:53.412Z,99358.91
2023-03-31T13:11:23.175Z,99360.59
2023-03-31T13:14:02.418Z,99353.22
2023-03-31T13:16:31.438Z,99363.91
2023-03-31T13:19:01.648Z,99322.13
2023-03-31T13:21:29.836Z,99352.88
2023-03-31T13:24:02.626Z,99359.94
2023-03-31T13:26:41.983Z,99356.25
2023-03-31T13:29:22.419Z,99317.78
2023-03-31T13:32:21.663Z,99348.88
2023-03-31T13:35:05.799Z,99354.25
2023-03-31T13:37:51.544Z,99364.94
2023-03-31T13:40:57.363Z,99346.38
2023-03-31T13:43:58.528Z,99361.25
2023-03-31T13:46:52.200Z,99347.19
2023-03-31T13:49:48.720Z,99283.97
2023-03-31T13:52:27.875Z,99362.94
2023-03-31T13:55:19.310Z,99350.72
2023-03-31T13:58:35.001Z,99357.25
2023-03-31T14:01:29.862Z,99353.91
2023-03-31T14:04:10.466Z,99360.94
2023-03-31T14:06:41.471Z,99363.44
2023-03-31T14:09:14.783Z,99369.63
2023-03-31T14:11:42.916Z,99368.63
2023-03-31T14:14:15.663Z,99365.94
2023-03-31T14:16:47.669Z,99364.94
2023-03-31T14:19:43.520Z,99362.25
2023-03-31T14:22:21.007Z,99373.47
2023-03-31T14:25:00.452Z,99367.28
2023-03-31T14:27:48.627Z,99375.31
2023-03-31T14:30:27.316Z,99219.03
2023-03-31T14:33:09.763Z,99372.63
2023-03-31T14:35:44.401Z,99377.31
2023-03-31T14:38:19.600Z,99381.00
2023-03-31T14:40:56.480Z,99384.69
2023-03-31T14:43:29.646Z,99380.16
2023-03-31T14:46:02.823Z,99303.88
2023-03-31T14:48:33.126Z,99386.69
2023-03-31T14:51:04.307Z,99397.41
2023-03-31T14:53:32.547Z,99314.75
2023-03-31T14:56:08.485Z,99388.38
2023-03-31T14:58:40.004Z,99329.13
2023-03-31T15:01:12.914Z,99397.75
2023-03-31T15:03:43.443Z,99401.44
2023-03-31T15:06:14.993Z,99414.47
2023-03-31T15:08:44.625Z,99414.47
2023-03-31T15:11:21.443Z,99394.03
2023-03-31T15:14:04.327Z,99395.38
2023-03-31T15:16:38.118Z,99330.03
2023-03-31T15:19:15.808Z,99411.78
2023-03-31T15:21:45.666Z,99426.16
2023-03-31T15:24:15.180Z,99412.09
2023-03-31T15:26:49.396Z,99235.66
2023-03-31T15:29:22.039Z,99238.69
2023-03-31T15:31:50.793Z,99311.28
2023-03-31T15:34:25.714Z,99428.50
2023-03-31T15:36:57.016Z,99418.97
2023-03-31T15:39:27.537Z,99305.72
2023-03-31T15:41:57.758Z,99434.50
2023-03-31T15:44:40.676Z,99436.53
2023-03-31T15:47:15.022Z,99441.03
2023-03-31T15:49:51.218Z,99449.22
2023-03-31T15:52:24.310Z,99296.78
2023-03-31T15:54:53.209Z,99367.75
2023-03-31T15:57:23.169Z,99371.09
2023-03-31T16:02:47.135Z,99464.25
2023-03-31T16:05:37.397Z,99452.72
2023-03-31T16:08:26.261Z,99459.06
2023-03-31T16:11:00.469Z,99270.25
2023-03-31T16:13:33.489Z,99462.59
2023-03-31T16:13:34.647Z,99461.75
2023-03-31T16:16:02.388Z,99460.91
2023-03-31T16:18:34.925Z,99395.47
2023-03-31T16:21:06.024Z,99476.94
2023-03-31T16:23:41.299Z,99475.28
2023-03-31T16:26:09.895Z,99405.53
2023-03-31T16:28:39.910Z,99481.66
2023-03-31T16:31:35.722Z,99486.16
2023-03-31T16:34:06.028Z,99484.31
2023-03-31T16:36:34.273Z,99494.19
2023-03-31T16:39:05.229Z,99491.66
2023-03-31T16:41:34.805Z,99502.38
2023-03-31T16:44:06.374Z,99495.34
2023-03-31T16:46:34.945Z,99497.16
2023-03-31T16:49:03.229Z,99509.69
2023-03-31T16:51:31.516Z,99515.06
2023-03-31T16:53:59.693Z,99343.78
2023-03-31T16:56:27.938Z,99499.97
2023-03-31T16:58:56.391Z,99518.41
2023-03-31T17:01:26.057Z,99427.88
2023-03-31T17:03:55.240Z,99513.38
2023-03-31T17:06:23.800Z,99516.75
2023-03-31T17:08:52.032Z,99421.19
2023-03-31T17:11:20.172Z,99413.78
2023-03-31T17:13:48.765Z,99518.75
2023-03-31T17:16:24.286Z,99440.25
2023-03-31T17:19:02.559Z,99529.44
2023-03-31T17:21:30.935Z,99530.44
2023-03-31T17:24:01.620Z,99429.78
2023-03-31T17:26:30.923Z,99369.53
2023-03-31T17:29:00.685Z,99458.91
2023-03-31T17:31:37.356Z,99544.16
2023-03-31T17:34:07.417Z,99554.22
2023-03-31T17:36:36.837Z,99550.53
2023-03-31T17:39:07.497Z,99560.06
2023-03-31T17:41:37.969Z,99562.56
2023-03-31T17:44:08.865Z,99564.28
2023-03-31T17:46:37.652Z,99565.94
2023-03-31T17:49:07.893Z,99565.94
2023-03-31T17:51:36.772Z,99578.31
2023-03-31T17:54:05.679Z,99584.50
2023-03-31T17:56:35.129Z,99570.44
2023-03-31T17:59:03.660Z,99469.28
2023-03-31T18:01:45.238Z,99585.03
2023-03-31T18:04:15.892Z,99595.75
2023-03-31T18:06:45.439Z,99504.81
2023-03-31T18:09:13.822Z,99511.88
2023-03-31T18:11:44.854Z,99566.94
2023-03-31T18:14:13.754Z,99491.59
2023-03-31T18:16:42.537Z,99591.75
2023-03-31T18:19:11.158Z,99597.09
2023-03-31T18:21:40.700Z,99585.69
2023-03-31T18:24:09.182Z,99605.13
2023-03-31T18:26:43.737Z,99559.50
2023-03-31T18:29:13.608Z,99594.06
2023-03-31T18:31:43.764Z,99527.16
2023-03-31T18:34:13.625Z,99443.34
2023-03-31T18:36:43.522Z,99569.84
2023-03-31T18:39:12.194Z,99630.34
2023-03-31T18:41:47.874Z,99632.38
2023-03-31T18:44:16.890Z,99635.84
2023-03-31T18:46:45.826Z,99639.69
2023-03-31T18:49:15.453Z,99635.50
2023-03-31T18:51:45.029Z,99646.22
2023-03-31T18:54:13.329Z,99651.56
2023-03-31T18:56:41.581Z,99578.03
2023-03-31T18:59:09.990Z,99662.59
2023-03-31T19:01:40.340Z,99658.25
2023-03-31T19:04:09.546Z,99678.66
2023-03-31T19:06:38.614Z,99665.91
2023-03-31T19:09:11.565Z,99665.50
2023-03-31T19:11:40.825Z,99686.97
2023-03-31T19:14:09.465Z,99691.47
2023-03-31T19:16:42.853Z,99693.34
2023-03-31T19:19:12.986Z,99564.00
2023-03-31T19:21:42.902Z,99609.34
2023-03-31T19:24:13.876Z,99688.63
2023-03-31T19:26:48.336Z,99664.31
2023-03-31T19:29:17.005Z,99627.06
2023-03-31T19:31:47.898Z,99702.66
2023-03-31T19:34:17.014Z,99710.69
2023-03-31T19:36:47.516Z,99622.97
2023-03-31T19:39:17.129Z,99724.06
2023-03-31T19:41:45.339Z,99709.72
2023-03-31T19:44:13.923Z,99722.38
2023-03-31T19:46:48.966Z,99714.28
2023-03-31T19:49:17.980Z,99717.03
2023-03-31T19:51:47.173Z,99532.88
2023-03-31T19:54:17.507Z,99705.34
2023-03-31T19:56:45.985Z,99736.78
2023-03-31T19:59:16.003Z,99709.53
2023-03-31T20:01:44.364Z,99663.13
2023-03-31T20:04:18.174Z,99645.47
2023-03-31T20:06:48.396Z,99658.69
2023-03-31T20:09:20.489Z,99733.41
2023-03-31T20:11:55.771Z,99728.09
2023-03-31T20:14:25.430Z,99742.44
2023-03-31T20:16:55.725Z,99742.44
2023-03-31T20:19:24.441Z,99603.00
2023-03-31T20:21:56.140Z,99749.44
2023-03-31T20:24:27.550Z,99753.13
2023-03-31T20:26:55.827Z,99743.25
2023-03-31T20:29:24.964Z,99747.78
2023-03-31T20:31:54.638Z,99652.28
2023-03-31T20:34:23.756Z,99666.25
2023-03-31T20:36:54.021Z,99754.81
2023-03-31T20:39:23.190Z,99599.16
2023-03-31T20:41:56.878Z,99754.81
2023-03-31T20:44:26.362Z,99753.13
2023-03-31T20:46:56.458Z,99761.31
2023-03-31T20:49:26.155Z,99761.31
2023-03-31T20:51:56.684Z,99772.84
2023-03-31T20:54:26.079Z,99775.50
2023-03-31T20:56:56.828Z,99754.03
2023-03-31T20:59:25.645Z,99768.50
2023-03-31T21:01:53.958Z,99696.09
2023-03-31T21:04:25.527Z,99789.59
2023-03-31T21:06:54.615Z,99782.56
2023-03-31T21:09:24.112Z,99792.25
2023-03-31T21:11:52.912Z,99806.66
2023-03-31T21:14:22.882Z,99805.78
2023-03-31T21:16:51.152Z,99800.06
2023-03-31T21:19:19.451Z,99815.50
2023-03-31T21:21:48.005Z,99727.22
2023-03-31T21:24:16.430Z,99770.28
2023-03-31T21:26:44.531Z,99732.88
2023-03-31T21:29:12.818Z,99827.19
2023-03-31T21:31:45.321Z,99829.72
2023-03-31T21:34:14.453Z,99840.41
2023-03-31T21:36:42.500Z,99828.03
2023-03-31T21:39:11.430Z,99835.06
2023-03-31T21:41:40.687Z,99834.22
2023-03-31T21:44:10.063Z,99833.41
2023-03-31T21:46:38.312Z,99846.78
2023-03-31T21:49:08.080Z,99800.94
2023-03-31T21:51:36.784Z,99837.34
2023-03-31T21:54:04.995Z,99849.44
2023-03-31T21:56:33.009Z,99695.03
2023-03-31T21:59:01.543Z,99854.81
2023-03-31T22:01:29.907Z,99860.16
2023-03-31T22:03:58.055Z,99863.81
2023-03-31T22:06:27.572Z,99865.50
2023-03-31T22:08:55.783Z,99865.50
2023-03-31T22:11:24.647Z,99865.50
2023-03-31T22:13:52.828Z,99753.06
2023-03-31T22:16:23.478Z,99846.94
2023-03-31T22:18:53.010Z,99688.47
2023-03-31T22:21:22.884Z,99869.16
2023-03-31T22:23:54.446Z,99872.81
2023-03-31T22:26:22.983Z,99867.47
2023-03-31T22:28:51.756Z,99874.50
2023-03-31T22:31:20.207Z,99845.34
2023-03-31T22:33:48.385Z,99802.13
2023-03-31T22:36:16.713Z,99881.00
2023-03-31T22:38:45.091Z,99888.88
2023-03-31T22:41:14.776Z,99894.22
2023-03-31T22:43:45.373Z,99787.91
2023-03-31T22:46:15.148Z,99897.59
2023-03-31T22:48:44.148Z,99906.59
2023-03-31T22:51:12.473Z,99899.59
2023-03-31T22:53:40.625Z,99881.31
2023-03-31T22:56:11.600Z,99905.78
2023-03-31T22:58:41.453Z,99888.59
2023-03-31T23:01:15.786Z,99911.13
2023-03-31T23:03:45.187Z,99913.97
2023-03-31T23:06:14.471Z,99915.63
2023-03-31T23:08:44.852Z,99908.59
2023-03-31T23:11:14.129Z,99721.00
2023-03-31T23:13:43.676Z,99898.78
2023-03-31T23:16:15.780Z,99915.63
2023-03-31T23:18:46.905Z,99920.97
2023-03-31T23:21:19.388Z,99919.31
2023-03-31T23:23:47.508Z,99907.22
2023-03-31T23:26:19.284Z,99924.38
2023-03-31T23:28:50.018Z,99947.75
2023-03-31T23:31:19.786Z,99940.72
2023-03-31T23:33:48.434Z,99943.38
2023-03-31T23:36:18.575Z,99939.00
2023-03-31T23:38:47.082Z,99944.34
2023-03-31T23:41:15.582Z,99858.19
2023-03-31T23:43:44.298Z,99949.72
2023-03-31T23:46:14.380Z,99833.41
2023-03-31T23:48:42.573Z,99963.78
2023-03-31T23:51:11.394Z,99963.78
2023-03-31T23:53:39.606Z,99972.81
2023-03-31T23:56:09.966Z,99962.13
2023-03-31T23:58:40.739Z,99970.97
